sensor_id;sensor_type;location;lat;lon;timestamp;temperature;humidity
67502;SHT30;54349;52.528;19.760;2023-05-10T00:01:34;23.69;39.91
67502;SHT30;54349;52.528;19.760;2023-05-10T00:04:03;23.69;39.94
67502;SHT30;54349;52.528;19.760;2023-05-10T00:06:31;23.70;39.87
67502;SHT30;54349;52.528;19.760;2023-05-10T00:09:00;23.71;39.74
67502;SHT30;54349;52.528;19.760;2023-05-10T00:11:28;23.71;39.66
67502;SHT30;54349;52.528;19.760;2023-05-10T00:13:56;23.69;39.56
67502;SHT30;54349;52.528;19.760;2023-05-10T00:16:24;23.67;39.43
67502;SHT30;54349;52.528;19.760;2023-05-10T00:18:52;23.65;39.34
67502;SHT30;54349;52.528;19.760;2023-05-10T00:21:20;23.60;39.28
67502;SHT30;54349;52.528;19.760;2023-05-10T00:23:49;23.59;39.18
67502;SHT30;54349;52.528;19.760;2023-05-10T00:26:17;23.56;39.10
67502;SHT30;54349;52.528;19.760;2023-05-10T00:28:48;23.54;39.05
67502;SHT30;54349;52.528;19.760;2023-05-10T00:31:16;23.52;38.99
67502;SHT30;54349;52.528;19.760;2023-05-10T00:33:44;23.49;38.90
67502;SHT30;54349;52.528;19.760;2023-05-10T00:36:12;23.46;38.86
67502;SHT30;54349;52.528;19.760;2023-05-10T00:38:41;23.44;38.82
67502;SHT30;54349;52.528;19.760;2023-05-10T00:41:09;23.42;38.79
67502;SHT30;54349;52.528;19.760;2023-05-10T00:43:38;23.39;38.71
67502;SHT30;54349;52.528;19.760;2023-05-10T00:46:06;23.37;38.69
67502;SHT30;54349;52.528;19.760;2023-05-10T00:48:35;23.33;38.65
67502;SHT30;54349;52.528;19.760;2023-05-10T00:51:03;23.32;38.59
67502;SHT30;54349;52.528;19.760;2023-05-10T00:53:32;23.29;38.54
67502;SHT30;54349;52.528;19.760;2023-05-10T00:56:01;23.26;38.50
67502;SHT30;54349;52.528;19.760;2023-05-10T00:58:31;23.24;38.43
67502;SHT30;54349;52.528;19.760;2023-05-10T01:00:59;23.22;38.37
67502;SHT30;54349;52.528;19.760;2023-05-10T01:03:29;23.20;38.35
67502;SHT30;54349;52.528;19.760;2023-05-10T01:05:57;23.18;38.31
67502;SHT30;54349;52.528;19.760;2023-05-10T01:08:25;23.15;38.29
67502;SHT30;54349;52.528;19.760;2023-05-10T01:10:55;23.13;38.28
67502;SHT30;54349;52.528;19.760;2023-05-10T01:13:32;23.11;38.19
67502;SHT30;54349;52.528;19.760;2023-05-10T01:16:05;23.08;38.14
67502;SHT30;54349;52.528;19.760;2023-05-10T01:18:36;23.06;38.13
67502;SHT30;54349;52.528;19.760;2023-05-10T01:24:17;23.02;38.05
67502;SHT30;54349;52.528;19.760;2023-05-10T01:27:20;22.99;38.00
67502;SHT30;54349;52.528;19.760;2023-05-10T01:38:42;22.90;37.90
67502;SHT30;54349;52.528;19.760;2023-05-10T01:44:31;22.85;37.83
67502;SHT30;54349;52.528;19.760;2023-05-10T01:47:09;22.83;37.83
67502;SHT30;54349;52.528;19.760;2023-05-10T01:49:43;22.80;37.80
67502;SHT30;54349;52.528;19.760;2023-05-10T01:52:22;22.79;37.80
67502;SHT30;54349;52.528;19.760;2023-05-10T01:55:11;22.76;37.74
67502;SHT30;54349;52.528;19.760;2023-05-10T01:57:44;22.74;37.73
67502;SHT30;54349;52.528;19.760;2023-05-10T02:00:18;22.73;37.72
67502;SHT30;54349;52.528;19.760;2023-05-10T02:02:51;22.71;37.69
67502;SHT30;54349;52.528;19.760;2023-05-10T02:05:21;22.69;37.66
67502;SHT30;54349;52.528;19.760;2023-05-10T02:07:52;22.67;37.65
67502;SHT30;54349;52.528;19.760;2023-05-10T02:10:21;22.66;37.63
67502;SHT30;54349;52.528;19.760;2023-05-10T02:12:50;22.64;37.60
67502;SHT30;54349;52.528;19.760;2023-05-10T02:15:22;22.63;37.59
67502;SHT30;54349;52.528;19.760;2023-05-10T02:17:54;22.61;37.57
67502;SHT30;54349;52.528;19.760;2023-05-10T02:20:24;22.59;37.55
67502;SHT30;54349;52.528;19.760;2023-05-10T02:22:54;22.57;37.54
67502;SHT30;54349;52.528;19.760;2023-05-10T02:25:25;22.57;37.55
67502;SHT30;54349;52.528;19.760;2023-05-10T02:27:55;22.55;37.51
67502;SHT30;54349;52.528;19.760;2023-05-10T02:30:25;22.53;37.48
67502;SHT30;54349;52.528;19.760;2023-05-10T02:32:55;22.52;37.49
67502;SHT30;54349;52.528;19.760;2023-05-10T02:35:28;22.49;37.47
67502;SHT30;54349;52.528;19.760;2023-05-10T02:37:58;22.47;37.42
67502;SHT30;54349;52.528;19.760;2023-05-10T02:40:30;22.46;37.43
67502;SHT30;54349;52.528;19.760;2023-05-10T02:43:01;22.45;37.41
67502;SHT30;54349;52.528;19.760;2023-05-10T02:45:32;22.44;37.39
67502;SHT30;54349;52.528;19.760;2023-05-10T02:48:03;22.41;37.40
67502;SHT30;54349;52.528;19.760;2023-05-10T02:50:32;22.41;37.37
67502;SHT30;54349;52.528;19.760;2023-05-10T02:53:05;22.39;37.34
67502;SHT30;54349;52.528;19.760;2023-05-10T02:55:40;22.39;37.29
67502;SHT30;54349;52.528;19.760;2023-05-10T02:58:14;22.37;37.31
67502;SHT30;54349;52.528;19.760;2023-05-10T03:00:42;22.35;37.25
67502;SHT30;54349;52.528;19.760;2023-05-10T03:03:11;22.34;37.21
67502;SHT30;54349;52.528;19.760;2023-05-10T03:05:40;22.33;37.20
67502;SHT30;54349;52.528;19.760;2023-05-10T03:08:08;22.30;37.13
67502;SHT30;54349;52.528;19.760;2023-05-10T03:11:01;22.30;37.11
67502;SHT30;54349;52.528;19.760;2023-05-10T03:14:07;22.26;37.01
67502;SHT30;54349;52.528;19.760;2023-05-10T03:16:57;22.25;37.00
67502;SHT30;54349;52.528;19.760;2023-05-10T03:19:49;22.22;36.96
67502;SHT30;54349;52.528;19.760;2023-05-10T03:22:27;22.21;36.94
67502;SHT30;54349;52.528;19.760;2023-05-10T03:25:08;22.20;36.92
67502;SHT30;54349;52.528;19.760;2023-05-10T03:27:40;22.18;36.93
67502;SHT30;54349;52.528;19.760;2023-05-10T03:30:11;22.18;36.89
67502;SHT30;54349;52.528;19.760;2023-05-10T03:32:41;22.16;36.85
67502;SHT30;54349;52.528;19.760;2023-05-10T03:35:10;22.15;36.86
67502;SHT30;54349;52.528;19.760;2023-05-10T03:37:41;22.14;36.85
67502;SHT30;54349;52.528;19.760;2023-05-10T03:40:09;22.13;36.82
67502;SHT30;54349;52.528;19.760;2023-05-10T03:42:38;22.11;36.84
67502;SHT30;54349;52.528;19.760;2023-05-10T03:45:07;22.10;36.82
67502;SHT30;54349;52.528;19.760;2023-05-10T03:47:37;22.10;36.80
67502;SHT30;54349;52.528;19.760;2023-05-10T03:50:05;22.08;36.79
67502;SHT30;54349;52.528;19.760;2023-05-10T03:52:34;22.08;36.80
67502;SHT30;54349;52.528;19.760;2023-05-10T03:55:02;22.07;36.79
67502;SHT30;54349;52.528;19.760;2023-05-10T03:57:32;22.05;36.80
67502;SHT30;54349;52.528;19.760;2023-05-10T04:00:00;22.04;36.78
67502;SHT30;54349;52.528;19.760;2023-05-10T04:02:28;22.03;36.72
67502;SHT30;54349;52.528;19.760;2023-05-10T04:04:57;22.02;36.72
67502;SHT30;54349;52.528;19.760;2023-05-10T04:07:25;22.00;36.73
67502;SHT30;54349;52.528;19.760;2023-05-10T04:09:53;21.99;36.73
67502;SHT30;54349;52.528;19.760;2023-05-10T04:12:22;21.98;36.72
67502;SHT30;54349;52.528;19.760;2023-05-10T04:14:50;21.98;36.72
67502;SHT30;54349;52.528;19.760;2023-05-10T04:17:18;21.99;36.69
67502;SHT30;54349;52.528;19.760;2023-05-10T04:19:46;21.99;36.69
67502;SHT30;54349;52.528;19.760;2023-05-10T04:22:14;22.00;36.67
67502;SHT30;54349;52.528;19.760;2023-05-10T04:24:43;22.02;36.63
67502;SHT30;54349;52.528;19.760;2023-05-10T04:27:11;22.04;36.62
67502;SHT30;54349;52.528;19.760;2023-05-10T04:29:39;22.04;36.59
67502;SHT30;54349;52.528;19.760;2023-05-10T04:32:08;22.06;36.58
67502;SHT30;54349;52.528;19.760;2023-05-10T04:34:37;22.07;36.62
67502;SHT30;54349;52.528;19.760;2023-05-10T04:37:05;22.08;36.79
67502;SHT30;54349;52.528;19.760;2023-05-10T04:39:35;22.08;36.99
67502;SHT30;54349;52.528;19.760;2023-05-10T04:42:03;22.09;37.00
67502;SHT30;54349;52.528;19.760;2023-05-10T04:44:33;22.10;37.00
67502;SHT30;54349;52.528;19.760;2023-05-10T04:47:01;22.12;36.94
67502;SHT30;54349;52.528;19.760;2023-05-10T04:49:30;22.12;36.90
67502;SHT30;54349;52.528;19.760;2023-05-10T04:51:58;22.12;36.86
67502;SHT30;54349;52.528;19.760;2023-05-10T04:54:27;22.13;36.80
67502;SHT30;54349;52.528;19.760;2023-05-10T04:56:54;22.13;36.74
67502;SHT30;54349;52.528;19.760;2023-05-10T04:59:23;22.13;36.73
67502;SHT30;54349;52.528;19.760;2023-05-10T05:01:50;22.13;36.78
67502;SHT30;54349;52.528;19.760;2023-05-10T05:04:19;22.14;37.12
67502;SHT30;54349;52.528;19.760;2023-05-10T05:06:47;22.14;37.06
67502;SHT30;54349;52.528;19.760;2023-05-10T05:09:15;22.14;36.95
67502;SHT30;54349;52.528;19.760;2023-05-10T05:11:43;22.12;36.90
67502;SHT30;54349;52.528;19.760;2023-05-10T05:14:12;22.11;36.88
67502;SHT30;54349;52.528;19.760;2023-05-10T05:16:40;22.09;36.84
67502;SHT30;54349;52.528;19.760;2023-05-10T05:19:08;22.07;36.91
67502;SHT30;54349;52.528;19.760;2023-05-10T05:21:36;22.06;37.02
67502;SHT30;54349;52.528;19.760;2023-05-10T05:24:04;22.04;37.05
67502;SHT30;54349;52.528;19.760;2023-05-10T05:26:33;22.02;37.19
67502;SHT30;54349;52.528;19.760;2023-05-10T05:29:01;22.00;37.37
67502;SHT30;54349;52.528;19.760;2023-05-10T05:31:30;21.97;37.60
67502;SHT30;54349;52.528;19.760;2023-05-10T05:33:58;21.97;37.74
67502;SHT30;54349;52.528;19.760;2023-05-10T05:36:26;21.96;37.97
67502;SHT30;54349;52.528;19.760;2023-05-10T05:38:54;21.94;38.09
67502;SHT30;54349;52.528;19.760;2023-05-10T05:41:22;21.93;38.06
67502;SHT30;54349;52.528;19.760;2023-05-10T05:43:52;21.92;38.00
67502;SHT30;54349;52.528;19.760;2023-05-10T05:46:20;21.91;37.95
67502;SHT30;54349;52.528;19.760;2023-05-10T05:48:48;21.89;37.90
67502;SHT30;54349;52.528;19.760;2023-05-10T05:51:16;21.89;37.88
67502;SHT30;54349;52.528;19.760;2023-05-10T05:53:44;21.88;37.86
67502;SHT30;54349;52.528;19.760;2023-05-10T05:56:12;21.88;37.80
67502;SHT30;54349;52.528;19.760;2023-05-10T05:58:40;21.87;37.78
67502;SHT30;54349;52.528;19.760;2023-05-10T06:01:09;21.86;37.79
67502;SHT30;54349;52.528;19.760;2023-05-10T06:03:37;21.84;37.79
67502;SHT30;54349;52.528;19.760;2023-05-10T06:06:05;21.84;37.75
67502;SHT30;54349;52.528;19.760;2023-05-10T06:08:33;21.84;37.74
67502;SHT30;54349;52.528;19.760;2023-05-10T06:11:01;21.84;37.77
67502;SHT30;54349;52.528;19.760;2023-05-10T06:13:31;21.83;37.81
67502;SHT30;54349;52.528;19.760;2023-05-10T06:16:02;21.83;37.81
67502;SHT30;54349;52.528;19.760;2023-05-10T06:18:30;21.83;37.82
67502;SHT30;54349;52.528;19.760;2023-05-10T06:20:59;21.83;37.83
67502;SHT30;54349;52.528;19.760;2023-05-10T06:23:27;21.82;37.84
67502;SHT30;54349;52.528;19.760;2023-05-10T06:25:55;21.82;37.82
67502;SHT30;54349;52.528;19.760;2023-05-10T06:28:23;21.82;37.82
67502;SHT30;54349;52.528;19.760;2023-05-10T06:30:51;21.81;37.80
67502;SHT30;54349;52.528;19.760;2023-05-10T06:33:19;21.82;37.77
67502;SHT30;54349;52.528;19.760;2023-05-10T06:35:47;21.81;37.76
67502;SHT30;54349;52.528;19.760;2023-05-10T06:38:16;21.81;37.77
67502;SHT30;54349;52.528;19.760;2023-05-10T06:40:44;21.81;37.77
67502;SHT30;54349;52.528;19.760;2023-05-10T06:43:12;21.81;37.79
67502;SHT30;54349;52.528;19.760;2023-05-10T06:45:42;21.80;37.80
67502;SHT30;54349;52.528;19.760;2023-05-10T06:48:10;21.80;37.81
67502;SHT30;54349;52.528;19.760;2023-05-10T06:50:39;21.80;37.83
67502;SHT30;54349;52.528;19.760;2023-05-10T06:53:07;21.81;37.85
67502;SHT30;54349;52.528;19.760;2023-05-10T06:55:35;21.80;37.95
67502;SHT30;54349;52.528;19.760;2023-05-10T06:58:03;21.80;37.91
67502;SHT30;54349;52.528;19.760;2023-05-10T07:00:31;21.80;37.99
67502;SHT30;54349;52.528;19.760;2023-05-10T07:02:59;21.80;38.05
67502;SHT30;54349;52.528;19.760;2023-05-10T07:05:28;21.80;38.07
67502;SHT30;54349;52.528;19.760;2023-05-10T07:07:57;21.80;38.03
67502;SHT30;54349;52.528;19.760;2023-05-10T07:10:25;21.80;38.08
67502;SHT30;54349;52.528;19.760;2023-05-10T07:12:53;21.80;38.08
67502;SHT30;54349;52.528;19.760;2023-05-10T07:15:21;21.80;38.09
67502;SHT30;54349;52.528;19.760;2023-05-10T07:17:50;21.80;38.04
67502;SHT30;54349;52.528;19.760;2023-05-10T07:20:20;21.81;38.07
67502;SHT30;54349;52.528;19.760;2023-05-10T07:22:48;21.81;38.05
67502;SHT30;54349;52.528;19.760;2023-05-10T07:25:16;21.80;38.12
67502;SHT30;54349;52.528;19.760;2023-05-10T07:27:45;21.81;38.24
67502;SHT30;54349;52.528;19.760;2023-05-10T07:30:13;21.82;38.18
67502;SHT30;54349;52.528;19.760;2023-05-10T07:32:42;21.81;38.16
67502;SHT30;54349;52.528;19.760;2023-05-10T07:35:10;21.82;38.11
67502;SHT30;54349;52.528;19.760;2023-05-10T07:37:38;21.81;38.09
67502;SHT30;54349;52.528;19.760;2023-05-10T07:40:07;21.81;38.14
67502;SHT30;54349;52.528;19.760;2023-05-10T07:42:36;21.83;38.11
67502;SHT30;54349;52.528;19.760;2023-05-10T07:45:05;21.83;38.10
67502;SHT30;54349;52.528;19.760;2023-05-10T07:47:34;21.83;38.12
67502;SHT30;54349;52.528;19.760;2023-05-10T07:50:03;21.83;38.12
67502;SHT30;54349;52.528;19.760;2023-05-10T07:52:32;21.84;38.20
67502;SHT30;54349;52.528;19.760;2023-05-10T07:55:00;21.83;38.18
67502;SHT30;54349;52.528;19.760;2023-05-10T07:57:29;21.84;38.29
67502;SHT30;54349;52.528;19.760;2023-05-10T07:59:58;21.84;38.29
67502;SHT30;54349;52.528;19.760;2023-05-10T08:02:26;21.85;38.24
67502;SHT30;54349;52.528;19.760;2023-05-10T08:04:55;21.85;38.26
67502;SHT30;54349;52.528;19.760;2023-05-10T08:07:24;21.85;38.29
67502;SHT30;54349;52.528;19.760;2023-05-10T08:09:52;21.86;38.25
67502;SHT30;54349;52.528;19.760;2023-05-10T08:12:20;21.87;38.27
67502;SHT30;54349;52.528;19.760;2023-05-10T08:14:48;21.87;38.28
67502;SHT30;54349;52.528;19.760;2023-05-10T08:17:16;21.87;38.21
67502;SHT30;54349;52.528;19.760;2023-05-10T08:19:46;21.88;38.24
67502;SHT30;54349;52.528;19.760;2023-05-10T08:22:14;21.89;38.21
67502;SHT30;54349;52.528;19.760;2023-05-10T08:24:43;21.89;38.21
67502;SHT30;54349;52.528;19.760;2023-05-10T08:27:11;21.89;38.30
67502;SHT30;54349;52.528;19.760;2023-05-10T08:29:40;21.90;38.31
67502;SHT30;54349;52.528;19.760;2023-05-10T08:32:17;21.91;38.29
67502;SHT30;54349;52.528;19.760;2023-05-10T08:34:45;21.91;38.35
67502;SHT30;54349;52.528;19.760;2023-05-10T08:37:13;21.91;38.31
67502;SHT30;54349;52.528;19.760;2023-05-10T08:39:41;21.93;38.31
67502;SHT30;54349;52.528;19.760;2023-05-10T08:42:09;21.94;38.32
67502;SHT30;54349;52.528;19.760;2023-05-10T08:44:38;21.94;38.40
67502;SHT30;54349;52.528;19.760;2023-05-10T08:47:07;21.96;38.36
67502;SHT30;54349;52.528;19.760;2023-05-10T08:49:37;21.96;38.39
67502;SHT30;54349;52.528;19.760;2023-05-10T08:52:08;21.98;38.33
67502;SHT30;54349;52.528;19.760;2023-05-10T08:54:42;21.99;38.30
67502;SHT30;54349;52.528;19.760;2023-05-10T08:57:11;21.99;38.28
67502;SHT30;54349;52.528;19.760;2023-05-10T08:59:39;22.00;38.30
67502;SHT30;54349;52.528;19.760;2023-05-10T09:02:09;22.01;38.31
67502;SHT30;54349;52.528;19.760;2023-05-10T09:04:43;22.02;38.30
67502;SHT30;54349;52.528;19.760;2023-05-10T09:07:11;22.04;38.31
67502;SHT30;54349;52.528;19.760;2023-05-10T09:09:40;22.05;38.32
67502;SHT30;54349;52.528;19.760;2023-05-10T09:12:08;22.06;38.29
67502;SHT30;54349;52.528;19.760;2023-05-10T09:14:38;22.08;38.29
67502;SHT30;54349;52.528;19.760;2023-05-10T09:17:07;22.08;38.23
67502;SHT30;54349;52.528;19.760;2023-05-10T09:19:37;22.09;38.21
67502;SHT30;54349;52.528;19.760;2023-05-10T09:22:05;22.11;38.15
67502;SHT30;54349;52.528;19.760;2023-05-10T09:24:34;22.13;38.15
67502;SHT30;54349;52.528;19.760;2023-05-10T09:27:02;22.15;38.18
67502;SHT30;54349;52.528;19.760;2023-05-10T09:29:41;22.15;38.17
67502;SHT30;54349;52.528;19.760;2023-05-10T09:32:10;22.17;38.19
67502;SHT30;54349;52.528;19.760;2023-05-10T09:34:40;22.19;38.19
67502;SHT30;54349;52.528;19.760;2023-05-10T09:37:09;22.21;38.19
67502;SHT30;54349;52.528;19.760;2023-05-10T09:39:38;22.22;38.18
67502;SHT30;54349;52.528;19.760;2023-05-10T09:42:07;22.25;38.22
67502;SHT30;54349;52.528;19.760;2023-05-10T09:44:36;22.27;38.22
67502;SHT30;54349;52.528;19.760;2023-05-10T09:47:05;22.29;38.20
67502;SHT30;54349;52.528;19.760;2023-05-10T09:49:34;22.31;38.15
67502;SHT30;54349;52.528;19.760;2023-05-10T09:52:03;22.34;38.12
67502;SHT30;54349;52.528;19.760;2023-05-10T09:54:34;22.35;38.10
67502;SHT30;54349;52.528;19.760;2023-05-10T09:57:02;22.37;38.10
67502;SHT30;54349;52.528;19.760;2023-05-10T09:59:32;22.39;38.09
67502;SHT30;54349;52.528;19.760;2023-05-10T10:02:03;22.41;38.03
67502;SHT30;54349;52.528;19.760;2023-05-10T10:04:31;22.42;38.08
67502;SHT30;54349;52.528;19.760;2023-05-10T10:07:01;22.45;38.10
67502;SHT30;54349;52.528;19.760;2023-05-10T10:09:32;22.46;38.10
67502;SHT30;54349;52.528;19.760;2023-05-10T10:12:02;22.48;38.09
67502;SHT30;54349;52.528;19.760;2023-05-10T10:14:32;22.50;38.02
67502;SHT30;54349;52.528;19.760;2023-05-10T10:17:02;22.54;37.99
67502;SHT30;54349;52.528;19.760;2023-05-10T10:19:35;22.55;38.00
67502;SHT30;54349;52.528;19.760;2023-05-10T10:22:05;22.57;38.02
67502;SHT30;54349;52.528;19.760;2023-05-10T10:24:34;22.60;38.02
67502;SHT30;54349;52.528;19.760;2023-05-10T10:30:28;22.64;38.00
67502;SHT30;54349;52.528;19.760;2023-05-10T10:35:59;22.69;37.81
67502;SHT30;54349;52.528;19.760;2023-05-10T10:38:36;22.71;37.81
67502;SHT30;54349;52.528;19.760;2023-05-10T10:44:23;22.75;37.74
67502;SHT30;54349;52.528;19.760;2023-05-10T10:55:01;22.84;37.58
67502;SHT30;54349;52.528;19.760;2023-05-10T11:00:35;22.89;37.49
67502;SHT30;54349;52.528;19.760;2023-05-10T11:03:06;22.91;37.50
67502;SHT30;54349;52.528;19.760;2023-05-10T11:05:49;22.94;37.52
67502;SHT30;54349;52.528;19.760;2023-05-10T11:08:25;22.95;37.47
67502;SHT30;54349;52.528;19.760;2023-05-10T11:16:19;23.03;37.35
67502;SHT30;54349;52.528;19.760;2023-05-10T11:18:53;23.06;37.40
67502;SHT30;54349;52.528;19.760;2023-05-10T11:21:44;23.10;37.41
67502;SHT30;54349;52.528;19.760;2023-05-10T11:24:22;23.11;37.44
67502;SHT30;54349;52.528;19.760;2023-05-10T11:26:54;23.14;37.31
67502;SHT30;54349;52.528;19.760;2023-05-10T11:29:23;23.15;37.31
67502;SHT30;54349;52.528;19.760;2023-05-10T11:31:56;23.18;37.36
67502;SHT30;54349;52.528;19.760;2023-05-10T11:34:26;23.21;37.25
67502;SHT30;54349;52.528;19.760;2023-05-10T11:37:02;23.23;37.13
67502;SHT30;54349;52.528;19.760;2023-05-10T11:39:30;23.24;37.15
67502;SHT30;54349;52.528;19.760;2023-05-10T11:42:01;23.27;37.13
67502;SHT30;54349;52.528;19.760;2023-05-10T11:44:30;23.30;37.05
67502;SHT30;54349;52.528;19.760;2023-05-10T11:47:00;23.32;37.11
67502;SHT30;54349;52.528;19.760;2023-05-10T11:49:29;23.35;37.09
67502;SHT30;54349;52.528;19.760;2023-05-10T11:52:07;23.36;37.06
67502;SHT30;54349;52.528;19.760;2023-05-10T11:54:36;23.39;36.94
67502;SHT30;54349;52.528;19.760;2023-05-10T11:57:04;23.41;36.89
67502;SHT30;54349;52.528;19.760;2023-05-10T11:59:32;23.44;36.86
67502;SHT30;54349;52.528;19.760;2023-05-10T12:02:01;23.45;36.91
67502;SHT30;54349;52.528;19.760;2023-05-10T12:04:30;23.47;36.83
67502;SHT30;54349;52.528;19.760;2023-05-10T12:06:59;23.49;36.83
67502;SHT30;54349;52.528;19.760;2023-05-10T12:09:27;23.51;36.80
67502;SHT30;54349;52.528;19.760;2023-05-10T12:12:15;23.53;36.80
67502;SHT30;54349;52.528;19.760;2023-05-10T12:14:47;23.55;36.78
67502;SHT30;54349;52.528;19.760;2023-05-10T12:17:18;23.57;36.77
67502;SHT30;54349;52.528;19.760;2023-05-10T12:19:46;23.60;36.72
67502;SHT30;54349;52.528;19.760;2023-05-10T12:22:14;23.61;36.66
67502;SHT30;54349;52.528;19.760;2023-05-10T12:24:42;23.63;36.60
67502;SHT30;54349;52.528;19.760;2023-05-10T12:27:13;23.66;36.57
67502;SHT30;54349;52.528;19.760;2023-05-10T12:30:00;23.67;36.58
67502;SHT30;54349;52.528;19.760;2023-05-10T12:32:38;23.70;36.50
67502;SHT30;54349;52.528;19.760;2023-05-10T12:35:08;23.72;36.41
67502;SHT30;54349;52.528;19.760;2023-05-10T12:37:36;23.74;36.36
67502;SHT30;54349;52.528;19.760;2023-05-10T12:40:07;23.75;36.25
67502;SHT30;54349;52.528;19.760;2023-05-10T12:42:39;23.78;36.21
67502;SHT30;54349;52.528;19.760;2023-05-10T12:45:08;23.79;36.16
67502;SHT30;54349;52.528;19.760;2023-05-10T12:47:37;23.81;36.20
67502;SHT30;54349;52.528;19.760;2023-05-10T12:50:10;23.83;36.16
67502;SHT30;54349;52.528;19.760;2023-05-10T12:52:38;23.84;36.16
67502;SHT30;54349;52.528;19.760;2023-05-10T12:55:07;23.86;36.17
67502;SHT30;54349;52.528;19.760;2023-05-10T12:57:36;23.88;36.08
67502;SHT30;54349;52.528;19.760;2023-05-10T13:00:04;23.90;36.00
67502;SHT30;54349;52.528;19.760;2023-05-10T13:02:34;23.92;36.00
67502;SHT30;54349;52.528;19.760;2023-05-10T13:05:02;23.94;36.00
67502;SHT30;54349;52.528;19.760;2023-05-10T13:07:31;23.95;35.93
67502;SHT30;54349;52.528;19.760;2023-05-10T13:09:59;23.97;35.91
67502;SHT30;54349;52.528;19.760;2023-05-10T13:12:28;23.98;35.89
67502;SHT30;54349;52.528;19.760;2023-05-10T13:14:56;24.00;35.93
67502;SHT30;54349;52.528;19.760;2023-05-10T13:17:25;24.02;35.85
67502;SHT30;54349;52.528;19.760;2023-05-10T13:19:54;24.03;35.88
67502;SHT30;54349;52.528;19.760;2023-05-10T13:22:22;24.04;35.88
67502;SHT30;54349;52.528;19.760;2023-05-10T13:25:06;24.07;35.81
67502;SHT30;54349;52.528;19.760;2023-05-10T13:27:35;24.08;35.81
67502;SHT30;54349;52.528;19.760;2023-05-10T13:30:03;24.09;35.83
67502;SHT30;54349;52.528;19.760;2023-05-10T13:32:32;24.11;35.81
67502;SHT30;54349;52.528;19.760;2023-05-10T13:35:01;24.12;35.85
67502;SHT30;54349;52.528;19.760;2023-05-10T13:37:33;24.14;35.82
67502;SHT30;54349;52.528;19.760;2023-05-10T13:40:05;24.14;35.79
67502;SHT30;54349;52.528;19.760;2023-05-10T13:42:34;24.16;35.75
67502;SHT30;54349;52.528;19.760;2023-05-10T13:45:02;24.17;35.81
67502;SHT30;54349;52.528;19.760;2023-05-10T13:47:31;24.19;35.75
67502;SHT30;54349;52.528;19.760;2023-05-10T13:50:00;24.21;35.72
67502;SHT30;54349;52.528;19.760;2023-05-10T13:52:28;24.22;35.72
67502;SHT30;54349;52.528;19.760;2023-05-10T13:54:56;24.23;35.70
67502;SHT30;54349;52.528;19.760;2023-05-10T14:00:42;24.25;35.63
67502;SHT30;54349;52.528;19.760;2023-05-10T14:03:11;24.26;35.66
67502;SHT30;54349;52.528;19.760;2023-05-10T14:05:39;24.27;35.67
67502;SHT30;54349;52.528;19.760;2023-05-10T14:08:07;24.28;35.65
67502;SHT30;54349;52.528;19.760;2023-05-10T14:10:37;24.29;35.68
67502;SHT30;54349;52.528;19.760;2023-05-10T14:13:05;24.30;35.66
67502;SHT30;54349;52.528;19.760;2023-05-10T14:15:34;24.32;35.62
67502;SHT30;54349;52.528;19.760;2023-05-10T14:18:02;24.33;35.54
67502;SHT30;54349;52.528;19.760;2023-05-10T14:20:30;24.34;35.51
67502;SHT30;54349;52.528;19.760;2023-05-10T14:23:01;24.35;35.42
67502;SHT30;54349;52.528;19.760;2023-05-10T14:25:29;24.36;35.36
67502;SHT30;54349;52.528;19.760;2023-05-10T14:27:57;24.37;35.32
67502;SHT30;54349;52.528;19.760;2023-05-10T14:30:26;24.39;35.29
67502;SHT30;54349;52.528;19.760;2023-05-10T14:32:53;24.40;35.27
67502;SHT30;54349;52.528;19.760;2023-05-10T14:35:22;24.41;35.30
67502;SHT30;54349;52.528;19.760;2023-05-10T14:37:51;24.42;35.39
67502;SHT30;54349;52.528;19.760;2023-05-10T14:40:19;24.42;35.40
67502;SHT30;54349;52.528;19.760;2023-05-10T14:42:49;24.43;35.41
67502;SHT30;54349;52.528;19.760;2023-05-10T14:45:19;24.45;35.39
67502;SHT30;54349;52.528;19.760;2023-05-10T14:47:51;24.45;35.33
67502;SHT30;54349;52.528;19.760;2023-05-10T14:50:20;24.46;35.38
67502;SHT30;54349;52.528;19.760;2023-05-10T14:57:33;24.49;35.39
67502;SHT30;54349;52.528;19.760;2023-05-10T15:00:02;24.49;35.41
67502;SHT30;54349;52.528;19.760;2023-05-10T15:02:32;24.49;35.42
67502;SHT30;54349;52.528;19.760;2023-05-10T15:05:01;24.51;35.37
67502;SHT30;54349;52.528;19.760;2023-05-10T15:07:45;24.50;35.40
67502;SHT30;54349;52.528;19.760;2023-05-10T15:10:13;24.51;35.42
67502;SHT30;54349;52.528;19.760;2023-05-10T15:12:42;24.51;35.45
67502;SHT30;54349;52.528;19.760;2023-05-10T15:15:10;24.53;35.43
67502;SHT30;54349;52.528;19.760;2023-05-10T15:17:39;24.53;35.45
67502;SHT30;54349;52.528;19.760;2023-05-10T15:20:07;24.53;35.41
67502;SHT30;54349;52.528;19.760;2023-05-10T15:22:36;24.54;35.41
67502;SHT30;54349;52.528;19.760;2023-05-10T15:25:06;24.54;35.41
67502;SHT30;54349;52.528;19.760;2023-05-10T15:27:35;24.55;35.45
67502;SHT30;54349;52.528;19.760;2023-05-10T15:30:03;24.56;35.44
67502;SHT30;54349;52.528;19.760;2023-05-10T15:32:32;24.55;35.42
67502;SHT30;54349;52.528;19.760;2023-05-10T15:35:00;24.56;35.42
67502;SHT30;54349;52.528;19.760;2023-05-10T15:37:28;24.57;35.46
67502;SHT30;54349;52.528;19.760;2023-05-10T15:39:56;24.57;35.43
67502;SHT30;54349;52.528;19.760;2023-05-10T15:42:31;24.57;35.46
67502;SHT30;54349;52.528;19.760;2023-05-10T15:44:59;24.58;35.54
67502;SHT30;54349;52.528;19.760;2023-05-10T15:47:29;24.57;35.56
67502;SHT30;54349;52.528;19.760;2023-05-10T15:49:58;24.57;35.60
67502;SHT30;54349;52.528;19.760;2023-05-10T15:52:27;24.58;35.62
67502;SHT30;54349;52.528;19.760;2023-05-10T15:54:56;24.58;35.62
67502;SHT30;54349;52.528;19.760;2023-05-10T15:57:24;24.58;35.65
67502;SHT30;54349;52.528;19.760;2023-05-10T15:59:52;24.58;35.67
67502;SHT30;54349;52.528;19.760;2023-05-10T16:02:20;24.58;35.71
67502;SHT30;54349;52.528;19.760;2023-05-10T16:04:50;24.57;35.74
67502;SHT30;54349;52.528;19.760;2023-05-10T16:07:18;24.57;35.81
67502;SHT30;54349;52.528;19.760;2023-05-10T16:09:46;24.58;35.79
67502;SHT30;54349;52.528;19.760;2023-05-10T16:12:16;24.57;35.81
67502;SHT30;54349;52.528;19.760;2023-05-10T16:14:44;24.57;35.84
67502;SHT30;54349;52.528;19.760;2023-05-10T16:17:13;24.56;35.84
67502;SHT30;54349;52.528;19.760;2023-05-10T16:19:42;24.56;35.85
67502;SHT30;54349;52.528;19.760;2023-05-10T16:22:10;24.57;35.91